createdAt,value
2019-05-15T00:00:53.339Z,103039.12
2019-05-15T00:05:54.902Z,103038.47
2019-05-15T00:10:58.087Z,103048.78
2019-05-15T00:15:59.948Z,103036.79
2019-05-15T00:21:01.447Z,103036.08
2019-05-15T00:26:03.028Z,103023.73
2019-05-15T00:31:04.568Z,103024.47
2019-05-15T00:36:08.477Z,103018.25
2019-05-15T00:41:09.737Z,103015.33
2019-05-15T00:46:11.233Z,103012.47
2019-05-15T00:51:14.736Z,103004.26
2019-05-15T00:56:16.225Z,103005.86
2019-05-15T01:01:19.288Z,102997.78
2019-05-15T01:06:20.890Z,102997.05
2019-05-15T01:11:22.310Z,102989.22
2019-05-15T01:16:23.630Z,102990.53
2019-05-15T01:21:25.167Z,102981.89
2019-05-15T01:26:28.227Z,102981.25
2019-05-15T01:31:29.766Z,102973.92
2019-05-15T01:36:31.157Z,102977.36
2019-05-15T01:41:32.682Z,102972.79
2019-05-15T01:46:34.106Z,102970.84
2019-05-15T01:51:35.504Z,102965.85
2019-05-15T01:56:38.695Z,102963.94
2019-05-15T02:01:40.341Z,102966.95
2019-05-15T02:06:41.865Z,102963.97
2019-05-15T02:11:43.246Z,102960.31
2019-05-15T02:16:44.768Z,102960.88
2019-05-15T02:21:48.477Z,102965.86
2019-05-15T02:26:49.841Z,102964.02
2019-05-15T02:31:51.320Z,102962.88
2019-05-15T02:36:52.824Z,102960.01
2019-05-15T02:41:54.336Z,102963.68
2019-05-15T02:46:58.595Z,102964.48
2019-05-15T02:52:00.229Z,102961.88
2019-05-15T02:57:02.115Z,102969.75
2019-05-15T03:02:03.714Z,102965.42
2019-05-15T03:07:05.253Z,102961.63
2019-05-15T03:12:09.101Z,102956.17
2019-05-15T03:17:10.165Z,102946.88
2019-05-15T03:22:11.651Z,102952.88
2019-05-15T03:27:13.135Z,102954.74
2019-05-15T03:32:27.763Z,102951.48
2019-05-15T03:37:22.038Z,102948.87
2019-05-15T03:42:21.474Z,102948.47
2019-05-15T03:47:22.892Z,102960.53
2019-05-15T03:52:24.383Z,102962.34
2019-05-15T03:57:25.959Z,102956.47
2019-05-15T04:02:28.794Z,102951.13
2019-05-15T04:07:30.608Z,102953.74
2019-05-15T04:12:32.198Z,102950.44
2019-05-15T04:17:33.695Z,102958.41
2019-05-15T04:22:35.206Z,102955.30
2019-05-15T04:27:39.053Z,102949.02
2019-05-15T04:32:40.240Z,102948.10
2019-05-15T04:37:41.808Z,102957.37
2019-05-15T04:42:43.318Z,102953.05
2019-05-15T04:47:44.824Z,102953.19
2019-05-15T04:52:49.904Z,102947.67
2019-05-15T04:57:50.267Z,102940.83
2019-05-15T05:02:51.980Z,102953.32
2019-05-15T05:07:53.527Z,102950.88
2019-05-15T05:12:55.130Z,102954.13
2019-05-15T05:17:58.575Z,102946.56
2019-05-15T05:23:00.095Z,102943.17
2019-05-15T05:28:01.600Z,102943.14
2019-05-15T05:33:03.418Z,102947.66
2019-05-15T05:38:04.890Z,102944.80
2019-05-15T05:43:09.305Z,102947.06
2019-05-15T05:48:09.963Z,102945.47
2019-05-15T05:53:11.493Z,102946.88
2019-05-15T05:58:13.061Z,102953.53
2019-05-15T06:03:14.555Z,102960.05
2019-05-15T06:08:19.141Z,102960.25
2019-05-15T06:13:19.631Z,102962.58
2019-05-15T06:18:21.147Z,102963.20
2019-05-15T06:23:25.098Z,102965.87
2019-05-15T06:28:28.686Z,102964.46
2019-05-15T06:33:29.786Z,102964.10
2019-05-15T06:38:31.283Z,102967.25
2019-05-15T06:43:32.827Z,102971.73
2019-05-15T06:48:34.438Z,102965.19
2019-05-15T06:53:38.250Z,102959.92
2019-05-15T06:58:39.352Z,102960.84
2019-05-15T07:03:40.727Z,102968.81
2019-05-15T07:08:42.248Z,102961.05
2019-05-15T07:13:43.745Z,102959.52
2019-05-15T07:18:45.281Z,102956.56
2019-05-15T07:23:49.619Z,102956.58
2019-05-15T07:28:51.091Z,102956.83
2019-05-15T07:33:52.591Z,102956.30
2019-05-15T07:38:54.106Z,102946.72
2019-05-15T07:43:55.629Z,102943.52
2019-05-15T07:48:58.379Z,102947.20
2019-05-15T07:54:02.630Z,102942.86
2019-05-15T07:59:03.624Z,102931.05
2019-05-15T08:04:22.757Z,102922.96
2019-05-15T08:09:08.933Z,102930.06
2019-05-15T08:14:10.489Z,102933.61
2019-05-15T08:19:12.045Z,102930.41
2019-05-15T08:24:13.449Z,102932.66
2019-05-15T08:29:18.569Z,102925.33
2019-05-15T08:34:19.605Z,102915.98
2019-05-15T08:39:21.293Z,102917.25
2019-05-15T08:44:23.028Z,102911.62
2019-05-15T08:49:24.587Z,102908.05
2019-05-15T08:54:25.998Z,102897.28
2019-05-15T08:59:29.438Z,102887.73
2019-05-15T09:04:34.786Z,102880.20
2019-05-15T09:09:34.687Z,102884.63
2019-05-15T09:14:38.023Z,102881.64
2019-05-15T09:19:39.691Z,102878.77
2019-05-15T09:24:41.212Z,102869.47
2019-05-15T09:29:42.650Z,102860.55
2019-05-15T09:34:50.878Z,102845.42
2019-05-15T09:39:48.973Z,102853.25
2019-05-15T09:44:50.727Z,102848.55
2019-05-15T09:49:52.263Z,102834.94
2019-05-15T09:54:53.873Z,102840.06
2019-05-15T09:59:55.491Z,102843.66
2019-05-15T10:05:05.891Z,102828.90
2019-05-15T10:10:00.582Z,102825.48
2019-05-15T10:15:02.227Z,102822.83
2019-05-15T10:20:03.882Z,102819.23
2019-05-15T10:25:08.135Z,102806.02
2019-05-15T10:30:09.328Z,102805.98
2019-05-15T10:35:24.371Z,102804.30
2019-05-15T10:40:14.906Z,102811.81
2019-05-15T10:45:19.091Z,102804.98
2019-05-15T10:50:20.247Z,102793.32
2019-05-15T10:55:21.807Z,102784.23
2019-05-15T11:00:23.345Z,102784.03
2019-05-15T11:05:40.219Z,102790.86
2019-05-15T11:10:29.021Z,102778.88
2019-05-15T11:15:30.702Z,102778.87
2019-05-15T11:20:32.206Z,102777.65
2019-05-15T11:25:33.645Z,102765.97
2019-05-15T11:30:35.179Z,102761.00
2019-05-15T11:35:39.074Z,102759.85
2019-05-15T11:40:40.144Z,102761.11
2019-05-15T11:45:41.641Z,102750.78
2019-05-15T11:50:43.154Z,102737.98
2019-05-15T11:55:44.697Z,102733.88
2019-05-15T12:00:48.772Z,102733.41
2019-05-15T12:05:49.739Z,102732.38
2019-05-15T12:10:51.284Z,102722.63
2019-05-15T12:15:52.944Z,102725.42
2019-05-15T12:20:54.648Z,102707.02
2019-05-15T12:25:59.340Z,102710.34
2019-05-15T12:30:59.996Z,102699.69
2019-05-15T12:36:01.576Z,102688.32
2019-05-15T13:01:18.387Z,102671.65
2019-05-15T13:06:20.751Z,102670.20
2019-05-15T13:11:22.324Z,102670.65
2019-05-15T13:16:23.844Z,102672.30
2019-05-15T13:21:25.370Z,102661.22
2019-05-15T13:26:27.235Z,102657.72
2019-05-15T13:31:28.970Z,102648.50
2019-05-15T13:36:30.523Z,102642.91
2019-05-15T13:41:32.022Z,102634.83
2019-05-15T13:46:33.537Z,102632.02
2019-05-15T13:51:35.117Z,102634.58
2019-05-15T13:56:38.194Z,102621.73
2019-05-15T14:01:40.071Z,102603.31
2019-05-15T14:06:41.592Z,102596.81
2019-05-15T14:11:43.008Z,102594.09
2019-05-15T14:16:44.451Z,102591.98
2019-05-15T14:21:52.064Z,102582.65
2019-05-15T14:26:53.654Z,102574.58
2019-05-15T14:31:55.121Z,102567.80
2019-05-15T14:36:58.676Z,102556.12
2019-05-15T14:42:00.543Z,102559.63
2019-05-15T14:47:01.964Z,102544.26
2019-05-15T14:52:08.821Z,102535.19
2019-05-15T14:57:08.696Z,102537.30
2019-05-15T15:02:10.577Z,102538.70
2019-05-15T15:07:12.242Z,102530.97
2019-05-15T15:12:13.839Z,102528.05
2019-05-15T15:17:16.465Z,102525.47
2019-05-15T15:22:18.041Z,102519.84
2019-05-15T15:27:19.621Z,102510.94
2019-05-15T15:32:21.142Z,102512.14
2019-05-15T15:37:22.717Z,102507.05
2019-05-15T15:42:24.516Z,102510.63
2019-05-15T15:47:28.154Z,102508.48
2019-05-15T15:52:29.990Z,102504.02
2019-05-15T15:57:31.437Z,102497.16
2019-05-15T16:02:32.942Z,102491.11
2019-05-15T16:07:34.618Z,102489.77
2019-05-15T16:12:38.463Z,102487.00
2019-05-15T16:17:39.528Z,102473.51
2019-05-15T16:22:43.131Z,102473.02
2019-05-15T16:27:44.760Z,102479.11
2019-05-15T16:32:46.260Z,102474.25
2019-05-15T16:37:49.228Z,102476.94
2019-05-15T16:42:52.146Z,102472.84
2019-05-15T16:47:53.792Z,102470.74
2019-05-15T16:52:58.402Z,102469.16
2019-05-15T16:57:59.877Z,102469.30
2019-05-15T17:03:13.542Z,102464.50
2019-05-15T17:08:04.901Z,102464.94
2019-05-15T17:13:08.486Z,102474.81
2019-05-15T17:18:09.807Z,102465.05
2019-05-15T17:23:11.399Z,102457.77
2019-05-15T17:28:13.217Z,102451.43
2019-05-15T17:33:14.764Z,102452.14
2019-05-15T17:38:18.260Z,102461.39
2019-05-15T17:43:19.724Z,102456.81
2019-05-15T17:48:21.308Z,102453.15
2019-05-15T17:53:22.648Z,102448.66
2019-05-15T17:58:24.356Z,102461.05
2019-05-15T18:03:28.797Z,102462.78
2019-05-15T18:08:30.086Z,102457.41
2019-05-15T18:13:31.892Z,102459.41
2019-05-15T18:18:33.432Z,102455.52
2019-05-15T18:23:35.002Z,102467.25
2019-05-15T18:28:38.783Z,102461.31
2019-05-15T18:33:53.049Z,102458.25
2019-05-15T18:38:43.715Z,102458.59
2019-05-15T18:43:48.284Z,102451.52
2019-05-15T18:48:49.767Z,102452.01
2019-05-15T18:53:51.271Z,102456.53
2019-05-15T18:58:52.795Z,102451.59
2019-05-15T19:03:54.297Z,102447.74
2019-05-15T19:08:55.960Z,102444.13
2019-05-15T19:13:58.899Z,102451.16
2019-05-15T19:19:00.799Z,102455.28
2019-05-15T19:24:02.677Z,102447.58
2019-05-15T19:29:04.182Z,102451.50
2019-05-15T19:34:05.752Z,102458.27
2019-05-15T19:39:08.053Z,102467.28
2019-05-15T19:44:09.825Z,102463.18
2019-05-15T19:49:12.392Z,102471.64
2019-05-15T19:54:13.836Z,102467.12
2019-05-15T19:59:15.298Z,102473.52
2019-05-15T20:04:18.568Z,102472.65
2019-05-15T20:09:20.205Z,102466.31
2019-05-15T20:14:21.740Z,102462.39
2019-05-15T20:19:23.344Z,102460.87
2019-05-15T20:24:24.853Z,102463.20
2019-05-15T20:29:28.822Z,102457.20
2019-05-15T20:34:29.983Z,102463.38
2019-05-15T20:39:31.509Z,102451.08
2019-05-15T20:44:33.057Z,102444.99
2019-05-15T20:49:34.670Z,102448.95
2019-05-15T20:54:38.642Z,102446.69
2019-05-15T20:59:39.566Z,102449.94
2019-05-15T21:04:41.117Z,102449.22
2019-05-15T21:09:42.651Z,102448.52
2019-05-15T21:14:44.291Z,102447.98
2019-05-15T21:19:45.801Z,102445.78
2019-05-15T21:24:47.139Z,102445.34
2019-05-15T21:29:49.124Z,102446.19
2019-05-15T21:34:50.912Z,102447.55
2019-05-15T21:39:52.451Z,102441.53
2019-05-15T21:44:53.972Z,102445.00
2019-05-15T21:49:55.816Z,102444.00
2019-05-15T21:54:59.401Z,102437.59
2019-05-15T22:00:00.824Z,102434.31
2019-05-15T22:05:02.837Z,102438.56
2019-05-15T22:10:04.358Z,102437.20
2019-05-15T22:15:05.897Z,102431.41
2019-05-15T22:20:09.249Z,102432.87
2019-05-15T22:25:11.613Z,102428.89
2019-05-15T22:30:13.117Z,102432.23
2019-05-15T22:35:15.014Z,102423.30
2019-05-15T22:40:18.313Z,102421.95
2019-05-15T22:45:19.747Z,102425.80
2019-05-15T22:50:21.242Z,102429.19
2019-05-15T22:55:22.760Z,102422.39
2019-05-15T23:00:24.221Z,102421.44
2019-05-15T23:05:29.362Z,102414.23
2019-05-15T23:10:29.464Z,102405.78
2019-05-15T23:15:31.184Z,102410.84
2019-05-15T23:20:32.680Z,102409.05
2019-05-15T23:25:34.119Z,102412.81
2019-05-15T23:30:35.677Z,102407.25
2019-05-15T23:35:38.923Z,102397.46
2019-05-15T23:40:40.631Z,102394.16
2019-05-15T23:45:42.101Z,102392.26
2019-05-15T23:50:43.534Z,102388.53
2019-05-15T23:55:44.930Z,102381.73
